Time;durP1;ratioP1;P1;durP2;ratioP2;P2;SDS_P1;SDS_P2;PMS_P1;PMS_P2;Temp;Humidity;BMP_temperature;BMP_pressure;BME280_temperature;BME280_humidity;BME280_pressure;Samples;Min_cycle;Max_cycle;Signal;HPM_P1;HPM_P2
2022/06/26 00:00:02;;;;;;;1.80;0.93;;;19.00;99.90;;;;;;5091020;28;20472;-47
2022/06/26 00:02:29;;;;;;;2.17;1.10;;;19.00;99.90;;;;;;5091048;28;20468;-47
2022/06/26 00:04:57;;;;;;;2.47;1.30;;;19.10;99.90;;;;;;5091607;28;20860;-47
2022/06/26 00:07:24;;;;;;;2.03;1.10;;;19.10;99.90;;;;;;5091451;28;20526;-47
2022/06/26 00:09:51;;;;;;;1.87;1.40;;;19.10;99.90;;;;;;5090975;28;20475;-51
2022/06/26 00:12:18;;;;;;;1.73;1.07;;;19.00;99.90;;;;;;5091118;28;20803;-47
2022/06/26 00:14:45;;;;;;;1.83;1.40;;;19.00;99.90;;;;;;5090961;28;20476;-46
2022/06/26 00:17:12;;;;;;;1.33;1.13;;;19.00;99.90;;;;;;5091132;28;21006;-46
2022/06/26 00:19:39;;;;;;;1.60;1.40;;;19.00;99.90;;;;;;5091068;28;20479;-46
2022/06/26 00:22:08;;;;;;;1.53;1.07;;;18.90;99.90;;;;;;5091123;28;20983;-47
2022/06/26 00:24:36;;;;;;;1.40;1.13;;;18.80;99.90;;;;;;5091444;28;20448;-46
2022/06/26 00:27:03;;;;;;;2.30;1.30;;;18.70;99.90;;;;;;5091170;28;20867;-46
2022/06/26 00:29:30;;;;;;;2.33;1.63;;;18.80;99.90;;;;;;5090807;28;20980;-48
2022/06/26 00:31:57;;;;;;;2.60;1.40;;;18.60;99.90;;;;;;5090983;28;20444;-46
2022/06/26 00:34:24;;;;;;;1.50;1.10;;;18.70;99.90;;;;;;5090858;28;20479;-47
2022/06/26 00:36:51;;;;;;;3.13;1.23;;;18.80;99.90;;;;;;5091314;28;20439;-47
2022/06/26 00:39:20;;;;;;;1.40;0.93;;;18.90;99.90;;;;;;5090913;28;20467;-50
2022/06/26 00:41:47;;;;;;;1.43;1.00;;;18.90;99.90;;;;;;5091146;28;21021;-47
2022/06/26 00:44:15;;;;;;;1.33;1.10;;;18.80;99.90;;;;;;5090984;28;20467;-46
2022/06/26 00:46:42;;;;;;;1.50;1.00;;;18.80;99.90;;;;;;5091036;28;20865;-48
2022/06/26 00:49:10;;;;;;;1.67;1.00;;;18.90;99.90;;;;;;5090580;28;20475;-48
2022/06/26 00:51:40;;;;;;;3.23;1.20;;;18.90;99.90;;;;;;5091032;28;20486;-48
2022/06/26 00:54:07;;;;;;;1.90;1.40;;;18.70;99.90;;;;;;5090492;28;20883;-46
2022/06/26 00:56:36;;;;;;;2.10;1.27;;;18.80;99.90;;;;;;5090981;28;20876;-46
2022/06/26 00:59:04;;;;;;;1.73;1.23;;;18.80;99.90;;;;;;5090382;28;20522;-46
2022/06/26 01:01:34;;;;;;;1.57;1.10;;;18.90;99.90;;;;;;5090816;28;20435;-48
2022/06/26 01:04:01;;;;;;;2.03;1.57;;;18.90;99.90;;;;;;5090734;28;20481;-47
2022/06/26 01:06:28;;;;;;;1.40;1.10;;;18.90;99.90;;;;;;5092169;28;20504;-47
2022/06/26 01:08:56;;;;;;;2.37;1.00;;;19.00;99.90;;;;;;5094695;28;20567;-46
2022/06/26 01:11:24;;;;;;;8.30;1.40;;;18.90;99.90;;;;;;5094448;28;20819;-47
2022/06/26 01:13:54;;;;;;;1.70;1.10;;;18.80;99.90;;;;;;5094608;28;20895;-47
2022/06/26 01:16:22;;;;;;;3.30;1.20;;;18.80;99.90;;;;;;5094587;28;20435;-48
2022/06/26 01:18:51;;;;;;;3.00;1.33;;;18.80;99.90;;;;;;5093900;28;21001;-46
2022/06/26 01:21:20;;;;;;;2.57;1.30;;;18.80;99.90;;;;;;5094620;28;20475;-46
2022/06/26 01:23:49;;;;;;;2.07;1.30;;;18.80;99.90;;;;;;5094287;28;20459;-46
2022/06/26 01:26:17;;;;;;;2.07;1.30;;;18.50;99.90;;;;;;5094322;28;20526;-47
2022/06/26 01:28:43;;;;;;;2.47;1.53;;;18.40;99.90;;;;;;5093973;28;21026;-48
2022/06/26 01:31:10;;;;;;;2.17;1.50;;;18.30;99.90;;;;;;5094191;28;20500;-47
2022/06/26 01:33:38;;;;;;;2.67;1.30;;;18.10;99.90;;;;;;5094095;28;20510;-46
2022/06/26 01:36:06;;;;;;;2.30;1.17;;;18.00;99.90;;;;;;5094240;28;20524;-47
2022/06/26 01:38:33;;;;;;;2.33;1.10;;;18.00;99.90;;;;;;5093961;28;20436;-46
2022/06/26 01:41:02;;;;;;;1.40;1.10;;;18.20;99.90;;;;;;5093916;28;20536;-49
2022/06/26 01:43:33;;;;;;;1.57;1.27;;;18.20;99.90;;;;;;5094211;28;20543;-47
2022/06/26 01:46:00;;;;;;;1.93;1.50;;;18.20;99.90;;;;;;5093626;28;20467;-46
2022/06/26 01:48:28;;;;;;;1.73;1.23;;;18.30;99.90;;;;;;5093700;28;20975;-49
2022/06/26 01:50:57;;;;;;;2.60;1.20;;;18.40;99.90;;;;;;5093820;28;20498;-46
2022/06/26 01:53:25;;;;;;;1.60;1.37;;;18.50;99.90;;;;;;5093863;28;21028;-47
2022/06/26 01:55:52;;;;;;;1.70;1.30;;;18.50;99.90;;;;;;5094045;28;20482;-48
2022/06/26 01:58:20;;;;;;;1.20;1.10;;;18.40;99.90;;;;;;5093697;28;20522;-50
2022/06/26 02:00:48;;;;;;;1.93;1.23;;;18.40;99.90;;;;;;5093665;28;20523;-49
2022/06/26 02:03:16;;;;;;;3.50;1.30;;;18.50;99.90;;;;;;5093717;28;20908;-46
2022/06/26 02:05:43;;;;;;;1.30;1.03;;;18.50;99.90;;;;;;5093962;28;20516;-46
2022/06/26 02:08:10;;;;;;;1.20;0.83;;;18.50;99.90;;;;;;5093797;28;20439;-47
2022/06/26 02:13:39;;;;;;;1.80;1.20;;;18.50;99.90;;;;;;5093702;28;20510;-46
2022/06/26 02:16:09;;;;;;;1.67;1.17;;;18.40;99.90;;;;;;5093574;28;20471;-46
2022/06/26 02:18:36;;;;;;;1.43;1.00;;;18.20;99.90;;;;;;5093373;28;20470;-46
2022/06/26 02:21:06;;;;;;;2.57;1.30;;;18.30;99.90;;;;;;5093059;28;20789;-46
2022/06/26 02:23:33;;;;;;;1.93;1.67;;;18.30;99.90;;;;;;5093277;28;20976;-46
2022/06/26 02:26:00;;;;;;;2.80;1.40;;;18.00;99.90;;;;;;5093419;28;21001;-46
2022/06/26 02:28:29;;;;;;;3.43;1.50;;;17.70;99.90;;;;;;5093114;28;20443;-47
2022/06/26 02:30:56;;;;;;;1.40;1.30;;;17.70;99.90;;;;;;5093070;28;20489;-48
2022/06/26 02:33:23;;;;;;;1.53;1.23;;;17.80;99.90;;;;;;5093193;28;20522;-47
2022/06/26 02:35:52;;;;;;;2.47;1.10;;;17.90;99.90;;;;;;5093409;28;20443;-48
2022/06/26 02:38:19;;;;;;;2.20;1.00;;;18.00;99.90;;;;;;5093079;28;20479;-47
2022/06/26 02:40:46;;;;;;;1.60;1.30;;;18.10;99.90;;;;;;5092927;28;20475;-47
2022/06/26 02:43:14;;;;;;;2.57;1.50;;;18.10;99.90;;;;;;5093104;28;20469;-46
2022/06/26 02:45:42;;;;;;;2.30;1.43;;;18.10;99.90;;;;;;5092789;28;20435;-48
2022/06/26 02:48:09;;;;;;;2.13;1.40;;;18.00;99.90;;;;;;5092852;28;20928;-46
2022/06/26 02:50:36;;;;;;;1.53;1.10;;;17.90;99.90;;;;;;5092611;28;21017;-49
2022/06/26 02:53:04;;;;;;;2.37;1.33;;;17.70;99.90;;;;;;5092777;28;20469;-47
2022/06/26 02:55:32;;;;;;;2.10;1.57;;;17.60;99.90;;;;;;5092968;28;20880;-46
2022/06/26 02:57:59;;;;;;;2.93;1.67;;;17.70;99.90;;;;;;5092846;28;20475;-46
2022/06/26 03:00:26;;;;;;;2.37;1.53;;;17.80;99.90;;;;;;5092395;28;20436;-46
2022/06/26 03:02:54;;;;;;;1.97;1.60;;;17.90;99.90;;;;;;5092692;28;20495;-46
2022/06/26 03:05:21;;;;;;;2.40;1.10;;;17.90;99.90;;;;;;5092914;28;20474;-46
2022/06/26 03:07:48;;;;;;;3.43;1.70;;;17.90;99.90;;;;;;5092400;28;20924;-46
2022/06/26 03:10:15;;;;;;;2.20;1.87;;;18.00;99.90;;;;;;5092344;28;20524;-46
2022/06/26 03:12:46;;;;;;;2.10;1.50;;;18.00;99.90;;;;;;5092043;28;20492;-46
2022/06/26 03:15:14;;;;;;;3.03;1.27;;;18.00;99.90;;;;;;5092457;28;20443;-46
2022/06/26 03:17:41;;;;;;;1.60;1.40;;;17.90;99.90;;;;;;5092618;28;20482;-46
2022/06/26 03:20:11;;;;;;;6.83;1.37;;;17.90;99.90;;;;;;5091810;28;20436;-50
2022/06/26 03:22:38;;;;;;;2.07;1.47;;;17.90;99.90;;;;;;5092105;28;20468;-46
2022/06/26 03:25:06;;;;;;;3.73;1.27;;;18.00;99.90;;;;;;5092432;28;20472;-46
2022/06/26 03:27:33;;;;;;;2.90;1.47;;;18.00;99.90;;;;;;5092468;28;20516;-47
2022/06/26 03:30:00;;;;;;;2.00;1.20;;;18.10;99.90;;;;;;5091152;28;20574;-46
2022/06/26 03:32:36;;;;;;;1.40;1.07;;;18.10;99.90;;;;;;5092528;28;20551;-48
2022/06/26 03:35:03;;;;;;;1.90;1.40;;;18.10;99.90;;;;;;5091995;28;20470;-46
2022/06/26 03:37:32;;;;;;;1.60;1.20;;;18.10;99.90;;;;;;5091676;28;20484;-47
2022/06/26 03:39:59;;;;;;;1.63;1.33;;;18.20;99.90;;;;;;5091873;28;20467;-46
2022/06/26 03:42:26;;;;;;;2.33;1.90;;;18.20;99.90;;;;;;5092007;28;20495;-49
2022/06/26 03:44:53;;;;;;;2.70;1.40;;;18.30;99.90;;;;;;5092026;28;20801;-47
2022/06/26 03:47:20;;;;;;;1.77;1.00;;;18.20;99.90;;;;;;5092000;28;20475;-47
2022/06/26 03:49:52;;;;;;;2.60;1.30;;;18.20;99.90;;;;;;5091507;28;21105;-46
2022/06/26 03:52:20;;;;;;;1.77;1.30;;;18.20;99.90;;;;;;5092097;28;20527;-46
2022/06/26 03:54:48;;;;;;;2.70;1.60;;;18.10;99.90;;;;;;5091982;28;20470;-48
2022/06/26 03:57:15;;;;;;;1.60;1.33;;;18.20;99.90;;;;;;5091740;28;20470;-48
2022/06/26 03:59:43;;;;;;;3.30;1.50;;;18.10;99.90;;;;;;5091396;28;20439;-46
2022/06/26 04:02:10;;;;;;;3.90;1.33;;;18.00;99.90;;;;;;5091618;28;20448;-47
2022/06/26 04:04:37;;;;;;;1.73;1.50;;;18.00;99.90;;;;;;5091831;28;20452;-47
2022/06/26 04:07:04;;;;;;;3.37;2.03;;;18.00;99.90;;;;;;5091823;28;20443;-46
2022/06/26 04:09:31;;;;;;;2.13;1.43;;;18.00;99.90;;;;;;5091482;28;20510;-46
2022/06/26 04:11:59;;;;;;;2.30;1.60;;;18.10;99.90;;;;;;5091487;28;20501;-47
2022/06/26 04:14:26;;;;;;;2.47;1.30;;;18.00;99.90;;;;;;5091373;28;20495;-47
2022/06/26 04:16:53;;;;;;;1.33;1.03;;;18.10;99.90;;;;;;5091411;28;20439;-47
2022/06/26 04:19:20;;;;;;;1.60;1.27;;;18.20;99.90;;;;;;5091066;28;20932;-49
2022/06/26 04:21:47;;;;;;;2.23;1.10;;;18.10;99.90;;;;;;5091384;28;20518;-47
2022/06/26 04:24:14;;;;;;;2.60;1.23;;;18.10;99.90;;;;;;5091210;28;20491;-47
2022/06/26 04:26:41;;;;;;;1.60;1.50;;;18.10;99.90;;;;;;5091574;28;21023;-47
2022/06/26 04:29:09;;;;;;;2.50;1.60;;;18.20;99.90;;;;;;5091184;28;20493;-46
2022/06/26 04:31:36;;;;;;;1.70;1.30;;;18.10;99.90;;;;;;5091453;28;20439;-47
2022/06/26 04:34:03;;;;;;;1.70;1.50;;;18.00;99.90;;;;;;5090733;28;20542;-47
2022/06/26 04:36:30;;;;;;;3.33;1.77;;;17.90;99.90;;;;;;5091240;28;21026;-46
2022/06/26 04:38:57;;;;;;;3.17;1.50;;;17.80;99.90;;;;;;5091605;28;20439;-47
2022/06/26 04:41:34;;;;;;;2.20;1.60;;;17.80;99.90;;;;;;5094481;28;20494;-46
2022/06/26 04:44:03;;;;;;;2.87;2.10;;;17.80;99.90;;;;;;5095320;28;20520;-49
2022/06/26 04:46:31;;;;;;;3.00;2.30;;;17.60;99.90;;;;;;5095392;28;20534;-47
2022/06/26 04:48:58;;;;;;;2.50;1.63;;;17.50;99.90;;;;;;5095116;28;20443;-47
2022/06/26 04:51:25;;;;;;;2.53;1.80;;;17.60;99.90;;;;;;5095064;28;20475;-46
2022/06/26 04:53:53;;;;;;;3.60;2.27;;;17.60;99.90;;;;;;5095158;28;20547;-47
2022/06/26 04:56:20;;;;;;;2.20;1.70;;;17.60;99.90;;;;;;5095179;28;20475;-48
2022/06/26 04:58:47;;;;;;;2.83;1.70;;;17.70;99.90;;;;;;5094734;28;20442;-45
2022/06/26 05:01:14;;;;;;;3.00;1.37;;;17.80;99.90;;;;;;5095034;28;20435;-48
2022/06/26 05:03:43;;;;;;;2.20;1.80;;;17.90;99.90;;;;;;5094889;28;20528;-47
2022/06/26 05:06:10;;;;;;;2.43;1.80;;;17.90;99.90;;;;;;5094716;28;20485;-46
2022/06/26 05:08:37;;;;;;;2.17;1.87;;;17.90;99.90;;;;;;5094591;28;20472;-49
2022/06/26 05:11:04;;;;;;;3.77;1.77;;;17.90;99.90;;;;;;5094205;28;20475;-47
2022/06/26 05:13:31;;;;;;;2.90;1.50;;;18.00;99.90;;;;;;5094914;28;20544;-48
2022/06/26 05:15:58;;;;;;;2.20;1.60;;;18.10;99.90;;;;;;5094744;28;20508;-46
2022/06/26 05:18:25;;;;;;;3.70;2.10;;;18.10;99.90;;;;;;5094722;28;20478;-46
2022/06/26 05:20:54;;;;;;;1.60;1.40;;;18.00;99.90;;;;;;5094304;28;20432;-47
2022/06/26 05:23:21;;;;;;;2.73;1.40;;;18.00;99.90;;;;;;5094456;28;20459;-46
2022/06/26 05:25:48;;;;;;;4.10;2.33;;;18.00;99.90;;;;;;5094154;28;20475;-49
2022/06/26 05:28:16;;;;;;;3.30;1.90;;;18.10;99.90;;;;;;5094188;28;20451;-46
2022/06/26 05:30:43;;;;;;;2.10;1.67;;;18.10;99.90;;;;;;5094286;28;20931;-47
2022/06/26 05:33:11;;;;;;;2.03;1.90;;;18.20;99.90;;;;;;5094048;28;20524;-47
2022/06/26 05:35:38;;;;;;;2.73;1.70;;;18.30;99.90;;;;;;5094465;28;20443;-46
2022/06/26 05:38:06;;;;;;;1.93;1.73;;;18.40;99.90;;;;;;5094261;28;20527;-47
2022/06/26 05:40:33;;;;;;;2.00;1.80;;;18.40;99.90;;;;;;5094158;28;20496;-47
2022/06/26 05:43:00;;;;;;;4.00;1.97;;;18.50;99.90;;;;;;5094228;28;20491;-47
2022/06/26 05:45:27;;;;;;;1.90;1.50;;;18.50;99.90;;;;;;5094247;28;20489;-49
2022/06/26 05:47:54;;;;;;;2.27;1.50;;;18.50;99.90;;;;;;5093996;28;20488;-47
2022/06/26 05:50:23;;;;;;;2.13;1.93;;;18.60;99.90;;;;;;5094073;28;20536;-46
2022/06/26 05:52:50;;;;;;;2.90;2.33;;;18.60;99.90;;;;;;5093474;28;20510;-51
2022/06/26 05:55:19;;;;;;;2.00;1.80;;;18.80;99.90;;;;;;5093961;28;20439;-46
2022/06/26 05:57:46;;;;;;;3.73;2.43;;;18.80;99.90;;;;;;5094057;28;20534;-50
2022/06/26 06:00:13;;;;;;;2.83;1.93;;;18.90;99.90;;;;;;5093742;28;20459;-46
2022/06/26 06:02:40;;;;;;;3.13;2.00;;;18.90;99.90;;;;;;5093848;28;20513;-47
2022/06/26 06:05:08;;;;;;;2.10;1.90;;;18.90;99.90;;;;;;5093759;28;20449;-47
2022/06/26 06:07:36;;;;;;;2.33;2.00;;;18.90;99.90;;;;;;5093728;28;20531;-47
2022/06/26 06:10:04;;;;;;;3.83;1.90;;;18.90;99.90;;;;;;5093290;28;20467;-48
2022/06/26 06:12:33;;;;;;;2.20;2.00;;;19.00;99.90;;;;;;5092966;28;20488;-48
2022/06/26 06:14:59;;;;;;;2.80;2.03;;;19.10;99.90;;;;;;5093925;28;20522;-47
2022/06/26 06:17:40;;;;;;;2.00;1.80;;;19.10;99.90;;;;;;5093835;28;20504;-46
2022/06/26 06:20:11;;;;;;;2.23;2.03;;;19.10;99.90;;;;;;5093021;28;20435;-46
2022/06/26 06:22:38;;;;;;;3.40;1.80;;;19.20;99.90;;;;;;5093549;28;20470;-48
2022/06/26 06:25:05;;;;;;;2.57;2.33;;;19.20;99.90;;;;;;5093577;28;20441;-46
2022/06/26 06:27:34;;;;;;;2.23;2.00;;;19.30;99.90;;;;;;5093436;28;20440;-47
2022/06/26 06:30:01;;;;;;;3.63;2.17;;;19.30;99.90;;;;;;5092832;28;20531;-47
2022/06/26 06:32:28;;;;;;;2.23;1.80;;;19.40;99.90;;;;;;5093082;28;20460;-47
2022/06/26 06:34:55;;;;;;;2.40;1.90;;;19.40;99.90;;;;;;5093162;28;20431;-46
2022/06/26 06:37:22;;;;;;;2.57;1.90;;;19.50;99.90;;;;;;5093121;28;20963;-47
2022/06/26 06:39:49;;;;;;;2.43;1.60;;;19.60;99.90;;;;;;5092845;28;20475;-46
2022/06/26 06:42:16;;;;;;;1.80;1.60;;;19.70;99.90;;;;;;5093046;28;20526;-47
2022/06/26 06:44:44;;;;;;;2.23;1.83;;;19.70;99.90;;;;;;5093209;28;20515;-47
2022/06/26 06:47:12;;;;;;;4.23;1.73;;;19.80;99.90;;;;;;5093177;28;20530;-47
2022/06/26 06:49:39;;;;;;;2.37;2.00;;;19.90;99.90;;;;;;5092559;28;20439;-49
2022/06/26 06:52:07;;;;;;;2.97;1.80;;;20.10;99.90;;;;;;5092711;28;20556;-47
2022/06/26 06:54:34;;;;;;;2.40;1.97;;;20.10;99.90;;;;;;5093087;28;20526;-47
2022/06/26 06:57:01;;;;;;;2.17;1.70;;;20.20;99.90;;;;;;5093177;28;20475;-47
2022/06/26 06:59:28;;;;;;;2.23;1.73;;;20.20;99.90;;;;;;5092254;28;20479;-47
2022/06/26 07:01:56;;;;;;;1.60;1.37;;;20.30;99.90;;;;;;5092704;28;20436;-47
2022/06/26 07:04:23;;;;;;;2.40;1.80;;;20.20;99.90;;;;;;5091387;28;20546;-46
2022/06/26 07:06:50;;;;;;;1.90;1.70;;;20.30;99.90;;;;;;5092407;28;20531;-47
2022/06/26 07:09:17;;;;;;;1.90;1.53;;;20.30;99.90;;;;;;5092080;28;20444;-46
2022/06/26 07:11:44;;;;;;;1.90;1.47;;;20.30;99.90;;;;;;5092120;28;21063;-49
2022/06/26 07:14:11;;;;;;;1.97;1.37;;;20.40;99.90;;;;;;5092564;28;20542;-46
2022/06/26 07:16:38;;;;;;;3.30;1.40;;;20.50;99.90;;;;;;5092287;28;20759;-47
2022/06/26 07:19:07;;;;;;;2.33;1.53;;;20.60;99.90;;;;;;5091926;28;20481;-47
2022/06/26 07:21:34;;;;;;;2.40;1.57;;;20.60;99.90;;;;;;5092051;28;20505;-47
2022/06/26 07:24:01;;;;;;;1.90;1.50;;;20.70;99.90;;;;;;5092072;28;20460;-47
2022/06/26 07:26:28;;;;;;;1.67;1.30;;;20.60;99.90;;;;;;5092412;28;20467;-47
2022/06/26 07:28:55;;;;;;;3.60;1.53;;;20.40;99.90;;;;;;5092004;28;20482;-46
2022/06/26 07:31:21;;;;;;;2.17;1.50;;;20.30;99.90;;;;;;5092040;28;20876;-48
2022/06/26 07:36:34;;;;;;;1.77;1.37;;;20.60;99.90;;;;;;5092313;28;20415;-47
2022/06/26 07:39:01;;;;;;;2.50;1.47;;;20.80;99.90;;;;;;5091960;28;20439;-47
2022/06/26 07:41:28;;;;;;;2.60;1.50;;;21.10;99.90;;;;;;5092265;28;20917;-49
2022/06/26 07:43:56;;;;;;;2.90;1.77;;;21.30;99.90;;;;;;5091978;28;20824;-47
2022/06/26 07:46:23;;;;;;;1.93;1.73;;;21.40;99.90;;;;;;5091996;28;20981;-47
2022/06/26 07:48:50;;;;;;;1.80;1.43;;;21.60;99.90;;;;;;5091661;28;20451;-48
2022/06/26 07:51:17;;;;;;;2.43;1.50;;;21.40;99.90;;;;;;5091901;28;20906;-49
2022/06/26 07:53:46;;;;;;;2.43;1.77;;;21.60;99.90;;;;;;5091772;28;21041;-47
2022/06/26 07:56:13;;;;;;;2.30;1.50;;;21.60;99.90;;;;;;5091906;28;20443;-47
2022/06/26 07:58:40;;;;;;;2.43;1.53;;;21.80;99.90;;;;;;5091482;28;20444;-45
2022/06/26 08:01:07;;;;;;;1.77;1.33;;;22.00;99.90;;;;;;5090188;28;20440;-50
2022/06/26 08:03:34;;;;;;;2.00;1.80;;;21.80;99.90;;;;;;5090119;28;20460;-47
2022/06/26 08:06:01;;;;;;;1.77;1.20;;;21.80;99.90;;;;;;5090146;28;20478;-48
2022/06/26 08:08:28;;;;;;;3.73;1.33;;;22.00;99.90;;;;;;5089946;28;20522;-47
2022/06/26 08:10:56;;;;;;;1.70;1.60;;;22.20;99.90;;;;;;5089351;28;20471;-48
2022/06/26 08:13:23;;;;;;;1.77;1.60;;;22.30;99.90;;;;;;5089831;28;20460;-49
2022/06/26 08:15:50;;;;;;;1.93;1.10;;;22.50;99.90;;;;;;5089574;28;20448;-48
2022/06/26 08:18:17;;;;;;;1.90;1.70;;;22.60;99.90;;;;;;5089920;28;20439;-47
2022/06/26 08:20:44;;;;;;;1.90;1.50;;;22.70;99.90;;;;;;5089046;28;20467;-48
2022/06/26 08:23:11;;;;;;;1.67;1.30;;;22.70;99.90;;;;;;5089920;28;20498;-47
2022/06/26 08:25:38;;;;;;;2.93;1.70;;;22.60;99.90;;;;;;5089802;28;20471;-47
2022/06/26 08:28:07;;;;;;;2.40;1.63;;;22.90;99.90;;;;;;5089732;28;20432;-48
2022/06/26 08:30:34;;;;;;;3.67;1.73;;;23.10;99.90;;;;;;5089473;28;20879;-47
2022/06/26 08:33:01;;;;;;;2.80;2.13;;;23.30;99.90;;;;;;5089879;28;20524;-47
2022/06/26 08:35:28;;;;;;;5.63;1.47;;;23.50;99.90;;;;;;5089566;28;20482;-47
2022/06/26 08:37:55;;;;;;;25.63;15.70;;;23.10;99.90;;;;;;5089760;28;20820;-47
2022/06/26 08:40:22;;;;;;;6.47;4.70;;;23.20;99.90;;;;;;5089642;28;20528;-47
2022/06/26 08:42:52;;;;;;;2.77;1.80;;;23.10;99.90;;;;;;5089533;28;20975;-47
2022/06/26 08:45:22;;;;;;;2.90;1.67;;;23.40;99.90;;;;;;5089686;28;20882;-47
2022/06/26 08:47:51;;;;;;;2.43;1.70;;;23.50;99.90;;;;;;5089469;28;20987;-47
2022/06/26 08:50:21;;;;;;;2.13;1.30;;;23.50;99.90;;;;;;5089605;28;20526;-49
2022/06/26 08:52:51;;;;;;;1.70;1.40;;;23.60;99.90;;;;;;5089607;28;20486;-47
2022/06/26 08:55:18;;;;;;;3.07;1.30;;;23.50;99.90;;;;;;5089860;28;20439;-47
2022/06/26 08:57:46;;;;;;;1.70;1.23;;;23.50;99.90;;;;;;5089707;28;20530;-47
2022/06/26 09:00:15;;;;;;;1.57;1.20;;;23.60;99.90;;;;;;5089454;28;20467;-50
2022/06/26 09:02:43;;;;;;;1.50;1.40;;;23.60;99.90;;;;;;5090147;28;20455;-49
2022/06/26 09:05:10;;;;;;;3.00;1.40;;;23.60;99.90;;;;;;5089447;28;20534;-48
2022/06/26 09:07:46;;;;;;;2.57;1.60;;;23.60;99.90;;;;;;5089862;28;20447;-50
2022/06/26 09:10:16;;;;;;;2.60;2.00;;;23.70;99.90;;;;;;5089328;28;20470;-52
2022/06/26 09:12:43;;;;;;;2.67;1.40;;;23.80;99.90;;;;;;5088840;28;20513;-48
2022/06/26 09:15:17;;;;;;;1.90;1.70;;;23.90;99.90;;;;;;5089569;28;20443;-51
2022/06/26 09:17:56;;;;;;;1.60;1.50;;;23.80;99.90;;;;;;5089617;28;20443;-49
2022/06/26 09:20:23;;;;;;;1.80;1.50;;;23.80;99.90;;;;;;5088879;28;20876;-50
2022/06/26 09:22:53;;;;;;;1.90;1.70;;;23.80;99.90;;;;;;5089338;28;20456;-48
2022/06/26 09:25:20;;;;;;;2.83;1.40;;;23.90;99.90;;;;;;5089800;28;20455;-48
2022/06/26 09:27:47;;;;;;;2.13;1.57;;;24.00;99.90;;;;;;5091222;28;20519;-47
2022/06/26 09:30:14;;;;;;;2.87;1.50;;;24.30;99.90;;;;;;5092980;28;20538;-49
2022/06/26 09:32:41;;;;;;;2.07;1.87;;;24.40;99.90;;;;;;5093964;28;20510;-50
2022/06/26 09:35:10;;;;;;;2.00;1.50;;;24.40;99.90;;;;;;5092681;28;20442;-47
2022/06/26 09:37:38;;;;;;;1.87;1.37;;;24.60;99.90;;;;;;5092713;28;20526;-52
2022/06/26 09:40:06;;;;;;;3.00;1.30;;;24.60;99.90;;;;;;5092718;28;20824;-50
2022/06/26 09:42:35;;;;;;;3.03;1.10;;;24.70;99.90;;;;;;5092580;28;20498;-51
2022/06/26 09:45:02;;;;;;;1.90;1.70;;;24.70;99.90;;;;;;5092727;28;20478;-48
2022/06/26 09:47:30;;;;;;;1.97;1.50;;;24.90;99.90;;;;;;5092646;28;20538;-47
2022/06/26 09:49:58;;;;;;;1.90;1.37;;;24.90;99.90;;;;;;5092664;28;20475;-48
2022/06/26 09:52:28;;;;;;;2.20;1.50;;;24.90;99.90;;;;;;5092504;28;20570;-49
2022/06/26 09:54:56;;;;;;;2.07;1.60;;;24.70;99.90;;;;;;5092603;28;20526;-49
2022/06/26 09:57:25;;;;;;;2.10;1.50;;;24.80;99.90;;;;;;5092303;28;20436;-48
2022/06/26 09:59:52;;;;;;;1.80;1.53;;;24.90;99.90;;;;;;5092552;28;20780;-47
2022/06/26 10:07:53;;;;;;;2.30;1.77;;;25.30;99.90;;;;;;5092268;28;21071;-48
2022/06/26 10:10:23;;;;;;;1.83;1.30;;;25.40;99.90;;;;;;5091924;28;20447;-51
2022/06/26 10:12:53;;;;;;;2.20;1.53;;;25.60;99.90;;;;;;5091485;28;20571;-47
2022/06/26 10:15:21;;;;;;;2.27;1.43;;;25.30;99.90;;;;;;5092379;28;20443;-47
2022/06/26 10:18:08;;;;;;;1.80;1.40;;;25.20;99.90;;;;;;5091948;28;20443;-47
2022/06/26 10:20:37;;;;;;;1.97;1.77;;;25.30;99.90;;;;;;5091561;28;20471;-48
2022/06/26 10:23:06;;;;;;;1.90;1.60;;;25.20;99.90;;;;;;5091875;28;20494;-49
2022/06/26 10:25:34;;;;;;;2.97;1.80;;;25.20;99.90;;;;;;5091941;28;20515;-49
2022/06/26 10:28:01;;;;;;;2.67;1.43;;;25.40;99.90;;;;;;5091672;28;20443;-49
2022/06/26 10:30:31;;;;;;;2.00;1.27;;;25.30;99.90;;;;;;5091724;28;20468;-51
2022/06/26 10:33:09;;;;;;;2.53;1.40;;;25.20;99.90;;;;;;5091410;28;20494;-48
2022/06/26 10:35:41;;;;;;;2.23;1.53;;;25.40;99.90;;;;;;5091808;28;20467;-47
2022/06/26 10:38:21;;;;;;;1.77;1.67;;;25.40;99.90;;;;;;5091539;28;20534;-48
2022/06/26 10:43:44;;;;;;;1.60;1.50;;;25.60;99.90;;;;;;5091530;28;20528;-49
2022/06/26 10:46:13;;;;;;;1.60;1.33;;;25.70;99.90;;;;;;5091733;28;20459;-47
2022/06/26 10:48:51;;;;;;;2.03;1.50;;;25.70;99.90;;;;;;5091543;28;20451;-47
2022/06/26 10:51:25;;;;;;;2.50;1.90;;;25.80;99.90;;;;;;5091488;28;20492;-50
2022/06/26 10:53:54;;;;;;;1.67;1.30;;;25.70;99.90;;;;;;5091724;28;20454;-48
2022/06/26 10:56:21;;;;;;;3.20;1.70;;;25.70;99.90;;;;;;5091127;28;21009;-48
2022/06/26 10:58:49;;;;;;;1.70;1.40;;;25.80;99.90;;;;;;5090950;28;20924;-48
2022/06/26 11:01:17;;;;;;;3.10;1.60;;;25.90;99.90;;;;;;5091177;28;20940;-47
2022/06/26 11:03:45;;;;;;;1.90;1.30;;;25.90;99.90;;;;;;5091120;28;20459;-49
2022/06/26 11:06:14;;;;;;;2.00;1.30;;;25.90;99.90;;;;;;5091024;28;21004;-49
2022/06/26 11:08:45;;;;;;;1.93;1.37;;;25.90;99.90;;;;;;5090733;28;21028;-48
2022/06/26 11:11:15;;;;;;;1.90;1.50;;;25.90;99.90;;;;;;5090706;28;20535;-48
2022/06/26 11:13:53;;;;;;;2.20;1.70;;;25.90;99.90;;;;;;5090991;28;20805;-48
2022/06/26 11:16:29;;;;;;;2.43;1.57;;;25.90;99.90;;;;;;5090890;28;20446;-49
2022/06/26 11:18:56;;;;;;;1.90;1.17;;;25.90;99.90;;;;;;5091076;28;20443;-49
2022/06/26 11:21:23;;;;;;;1.93;1.60;;;25.90;99.90;;;;;;5090725;28;20482;-47
2022/06/26 11:23:51;;;;;;;2.37;1.80;;;26.00;99.90;;;;;;5090534;28;20501;-49
2022/06/26 11:26:21;;;;;;;3.13;1.47;;;26.10;99.90;;;;;;5090835;28;20444;-51
2022/06/26 11:28:55;;;;;;;1.70;1.60;;;26.20;99.90;;;;;;5090787;28;20471;-48
2022/06/26 11:31:23;;;;;;;1.80;1.40;;;26.20;99.90;;;;;;5090820;28;20445;-47
2022/06/26 11:33:50;;;;;;;1.90;1.63;;;26.30;99.90;;;;;;5090032;28;20475;-50
2022/06/26 11:36:19;;;;;;;1.70;1.40;;;26.40;99.90;;;;;;5090847;28;20440;-48
2022/06/26 11:38:50;;;;;;;2.00;1.50;;;26.50;99.90;;;;;;5090307;28;20496;-47
2022/06/26 11:41:20;;;;;;;3.17;1.80;;;26.50;99.90;;;;;;5090498;28;20478;-48
2022/06/26 11:43:48;;;;;;;1.90;1.40;;;26.50;99.90;;;;;;5090722;28;20463;-50
2022/06/26 11:46:16;;;;;;;2.37;1.30;;;26.50;99.90;;;;;;5090515;28;20501;-50
2022/06/26 11:48:43;;;;;;;2.37;1.30;;;26.50;99.90;;;;;;5090568;28;20488;-48
2022/06/26 11:51:13;;;;;;;2.03;1.60;;;26.50;99.90;;;;;;5089750;28;20443;-47
2022/06/26 11:53:43;;;;;;;2.30;1.53;;;26.50;98.80;;;;;;5090142;28;20487;-50
2022/06/26 11:56:12;;;;;;;1.77;1.43;;;26.60;99.90;;;;;;5090175;28;20447;-49
2022/06/26 11:58:47;;;;;;;2.13;1.60;;;26.60;99.90;;;;;;5090105;28;20538;-49
2022/06/26 12:01:15;;;;;;;1.40;1.30;;;26.60;99.30;;;;;;5090135;28;20978;-48
2022/06/26 12:03:53;;;;;;;2.13;1.50;;;26.60;99.60;;;;;;5090023;28;20487;-48
2022/06/26 12:06:31;;;;;;;1.50;1.40;;;26.70;99.30;;;;;;5090147;28;20447;-49
2022/06/26 12:08:59;;;;;;;2.13;1.43;;;26.70;99.20;;;;;;5089700;28;20435;-47
2022/06/26 12:11:26;;;;;;;1.57;1.40;;;26.80;98.50;;;;;;5089963;28;20486;-47
2022/06/26 12:13:54;;;;;;;2.13;1.50;;;26.90;99.60;;;;;;5089940;28;20590;-47
2022/06/26 12:16:21;;;;;;;2.33;1.47;;;26.90;99.00;;;;;;5089927;28;20492;-48
2022/06/26 12:18:50;;;;;;;3.10;1.60;;;26.90;97.90;;;;;;5089643;28;20436;-47
2022/06/26 12:21:19;;;;;;;1.90;1.60;;;27.00;98.90;;;;;;5089383;28;20435;-48
2022/06/26 12:23:47;;;;;;;2.03;1.87;;;27.10;98.80;;;;;;5089670;28;20999;-48
2022/06/26 12:26:17;;;;;;;1.50;1.37;;;27.30;99.90;;;;;;5089817;28;20479;-48
2022/06/26 12:28:47;;;;;;;1.70;1.40;;;27.30;99.90;;;;;;5090164;28;20538;-49
2022/06/26 12:31:17;;;;;;;1.90;1.70;;;27.30;99.90;;;;;;5089772;28;20895;-47
2022/06/26 12:33:44;;;;;;;2.90;1.37;;;27.30;98.30;;;;;;5089529;28;20609;-47
2022/06/26 12:36:12;;;;;;;2.43;1.60;;;27.40;98.70;;;;;;5089933;28;20471;-48
2022/06/26 12:38:39;;;;;;;2.80;1.20;;;27.40;98.10;;;;;;5089828;28;20435;-49
2022/06/26 12:41:16;;;;;;;3.50;1.47;;;27.40;97.30;;;;;;5089689;28;20482;-50
2022/06/26 12:43:44;;;;;;;2.67;2.03;;;27.40;97.20;;;;;;5089550;28;20491;-49
2022/06/26 12:46:11;;;;;;;2.50;1.90;;;27.40;96.50;;;;;;5089860;28;20471;-50
2022/06/26 12:48:39;;;;;;;1.80;1.50;;;27.50;97.00;;;;;;5089735;28;20436;-48
2022/06/26 12:51:06;;;;;;;1.60;1.40;;;27.50;96.20;;;;;;5089502;28;20932;-47
2022/06/26 12:53:33;;;;;;;1.90;1.30;;;27.60;95.80;;;;;;5089474;28;20555;-50
2022/06/26 12:56:00;;;;;;;1.80;1.30;;;27.80;97.80;;;;;;5089633;28;20523;-50
2022/06/26 12:58:27;;;;;;;1.97;1.27;;;27.90;95.40;;;;;;5089664;28;20861;-49
2022/06/26 13:00:54;;;;;;;2.20;1.43;;;27.90;95.20;;;;;;5089549;28;20531;-49
2022/06/26 13:03:21;;;;;;;2.13;1.53;;;28.00;97.00;;;;;;5092606;28;20487;-49
2022/06/26 13:05:50;;;;;;;1.70;1.60;;;28.10;93.60;;;;;;5093553;28;20534;-50